Balintore, United Kingdom
Current Conditions -  °F | °C
As of 4:50 PM on Friday 24 Oct 2014 (Local Time) from EGQK Reporting Station
Broken Clouds Broken Clouds  
Wind Chill: 52°   Ceiling: 4600
Heat Index: 52°   Visibility: 6mi
Dew Point: 43°   Wind: 12mph
Humidity: 71%   Direction: 200°SSW
Pressure: 29.59"   Gusts: NA
Location:  57.76°N, 3.91°W
Report Text: EGQK 241550Z AUTO 20010KT 9999 FEW030/// BKN046/// 11/06 Q1002 RERA
Loading
Personal Weather Stations






























Interactive Weather Map
Tropical Storm Tracking
New forecast layout! Learn more

10-Day Weather Forecast

Advertisements
Track Severe Weather on mobile